sensor_id;sensor_type;location;lat;lon;timestamp;temperature;humidity
69628;DHT22;56850;51.984;5.088;2023-01-30T00:00:00;7.60;81.40
69628;DHT22;56850;51.984;5.088;2023-01-30T00:02:29;7.60;81.50
69628;DHT22;56850;51.984;5.088;2023-01-30T00:04:56;7.60;81.50
69628;DHT22;56850;51.984;5.088;2023-01-30T00:07:23;7.60;81.70
69628;DHT22;56850;51.984;5.088;2023-01-30T00:09:50;7.70;81.90
69628;DHT22;56850;51.984;5.088;2023-01-30T00:12:17;7.70;82.40
69628;DHT22;56850;51.984;5.088;2023-01-30T00:14:44;7.70;82.80
69628;DHT22;56850;51.984;5.088;2023-01-30T00:17:12;7.80;83.00
69628;DHT22;56850;51.984;5.088;2023-01-30T00:19:39;7.80;82.80
69628;DHT22;56850;51.984;5.088;2023-01-30T00:22:06;7.80;82.80
69628;DHT22;56850;51.984;5.088;2023-01-30T00:24:33;7.90;82.80
69628;DHT22;56850;51.984;5.088;2023-01-30T00:27:00;7.90;82.70
69628;DHT22;56850;51.984;5.088;2023-01-30T00:29:27;8.00;82.50
69628;DHT22;56850;51.984;5.088;2023-01-30T00:31:54;8.00;82.50
69628;DHT22;56850;51.984;5.088;2023-01-30T00:34:21;8.00;82.50
69628;DHT22;56850;51.984;5.088;2023-01-30T00:36:48;8.00;82.50
69628;DHT22;56850;51.984;5.088;2023-01-30T00:39:33;8.00;82.40
69628;DHT22;56850;51.984;5.088;2023-01-30T00:42:00;8.00;82.30
69628;DHT22;56850;51.984;5.088;2023-01-30T00:44:45;8.00;82.30
69628;DHT22;56850;51.984;5.088;2023-01-30T00:47:31;8.00;82.20
69628;DHT22;56850;51.984;5.088;2023-01-30T00:49:58;8.10;82.20
69628;DHT22;56850;51.984;5.088;2023-01-30T00:52:25;8.10;82.20
69628;DHT22;56850;51.984;5.088;2023-01-30T00:54:51;8.10;82.20
69628;DHT22;56850;51.984;5.088;2023-01-30T00:57:18;8.10;82.20
69628;DHT22;56850;51.984;5.088;2023-01-30T00:59:45;8.10;82.20
69628;DHT22;56850;51.984;5.088;2023-01-30T01:02:14;8.10;82.30
69628;DHT22;56850;51.984;5.088;2023-01-30T01:04:41;8.10;82.20
69628;DHT22;56850;51.984;5.088;2023-01-30T01:07:12;8.10;82.10
69628;DHT22;56850;51.984;5.088;2023-01-30T01:09:40;8.20;81.90
69628;DHT22;56850;51.984;5.088;2023-01-30T01:12:08;8.20;81.90
69628;DHT22;56850;51.984;5.088;2023-01-30T01:14:35;8.20;82.00
69628;DHT22;56850;51.984;5.088;2023-01-30T01:17:02;8.20;82.10
69628;DHT22;56850;51.984;5.088;2023-01-30T01:19:29;8.30;82.10
69628;DHT22;56850;51.984;5.088;2023-01-30T01:21:56;8.30;82.20
69628;DHT22;56850;51.984;5.088;2023-01-30T01:24:23;8.30;82.20
69628;DHT22;56850;51.984;5.088;2023-01-30T01:26:50;8.30;82.10
69628;DHT22;56850;51.984;5.088;2023-01-30T01:29:17;8.40;82.20
69628;DHT22;56850;51.984;5.088;2023-01-30T01:31:44;8.40;82.30
69628;DHT22;56850;51.984;5.088;2023-01-30T01:34:11;8.40;82.30
69628;DHT22;56850;51.984;5.088;2023-01-30T01:36:38;8.40;82.20
69628;DHT22;56850;51.984;5.088;2023-01-30T01:39:19;8.40;82.10
69628;DHT22;56850;51.984;5.088;2023-01-30T01:41:48;8.50;82.00
69628;DHT22;56850;51.984;5.088;2023-01-30T01:44:15;8.50;81.90
69628;DHT22;56850;51.984;5.088;2023-01-30T01:46:55;8.50;81.90
69628;DHT22;56850;51.984;5.088;2023-01-30T01:49:32;8.50;81.90
69628;DHT22;56850;51.984;5.088;2023-01-30T01:52:10;8.50;81.90
69628;DHT22;56850;51.984;5.088;2023-01-30T01:57:20;8.50;81.90
69628;DHT22;56850;51.984;5.088;2023-01-30T01:59:51;8.50;81.80
69628;DHT22;56850;51.984;5.088;2023-01-30T02:02:19;8.50;81.90
69628;DHT22;56850;51.984;5.088;2023-01-30T02:04:52;8.40;82.00
69628;DHT22;56850;51.984;5.088;2023-01-30T02:07:46;8.40;82.00
69628;DHT22;56850;51.984;5.088;2023-01-30T02:10:22;8.50;82.10
69628;DHT22;56850;51.984;5.088;2023-01-30T02:12:51;8.40;82.20
69628;DHT22;56850;51.984;5.088;2023-01-30T02:15:20;8.40;82.20
69628;DHT22;56850;51.984;5.088;2023-01-30T02:17:47;8.40;82.20
69628;DHT22;56850;51.984;5.088;2023-01-30T02:20:26;8.40;82.40
69628;DHT22;56850;51.984;5.088;2023-01-30T02:26:12;8.40;82.50
69628;DHT22;56850;51.984;5.088;2023-01-30T02:29:09;8.40;82.40
69628;DHT22;56850;51.984;5.088;2023-01-30T02:32:00;8.40;82.30
69628;DHT22;56850;51.984;5.088;2023-01-30T02:34:36;8.40;82.40
69628;DHT22;56850;51.984;5.088;2023-01-30T02:37:27;8.40;82.40
69628;DHT22;56850;51.984;5.088;2023-01-30T02:48:05;8.30;82.80
69628;DHT22;56850;51.984;5.088;2023-01-30T02:50:42;8.30;82.90
69628;DHT22;56850;51.984;5.088;2023-01-30T02:53:10;8.30;82.90
69628;DHT22;56850;51.984;5.088;2023-01-30T02:55:40;8.30;82.90
69628;DHT22;56850;51.984;5.088;2023-01-30T02:58:08;8.30;82.90
69628;DHT22;56850;51.984;5.088;2023-01-30T03:12:06;8.30;83.00
69628;DHT22;56850;51.984;5.088;2023-01-30T03:14:51;8.30;83.10
69628;DHT22;56850;51.984;5.088;2023-01-30T03:17:22;8.20;83.30
69628;DHT22;56850;51.984;5.088;2023-01-30T03:19:52;8.20;83.40
69628;DHT22;56850;51.984;5.088;2023-01-30T03:22:20;8.20;83.40
69628;DHT22;56850;51.984;5.088;2023-01-30T03:24:50;8.20;83.40
69628;DHT22;56850;51.984;5.088;2023-01-30T03:27:18;8.30;83.30
69628;DHT22;56850;51.984;5.088;2023-01-30T03:29:46;8.30;83.40
69628;DHT22;56850;51.984;5.088;2023-01-30T03:32:14;8.30;83.40
69628;DHT22;56850;51.984;5.088;2023-01-30T03:34:41;8.30;83.50
69628;DHT22;56850;51.984;5.088;2023-01-30T03:37:09;8.30;83.40
69628;DHT22;56850;51.984;5.088;2023-01-30T03:39:36;8.30;83.40
69628;DHT22;56850;51.984;5.088;2023-01-30T03:42:04;8.30;83.40
69628;DHT22;56850;51.984;5.088;2023-01-30T03:44:31;8.40;83.40
69628;DHT22;56850;51.984;5.088;2023-01-30T03:46:58;8.40;83.20
69628;DHT22;56850;51.984;5.088;2023-01-30T03:49:25;8.40;83.10
69628;DHT22;56850;51.984;5.088;2023-01-30T03:51:53;8.50;83.10
69628;DHT22;56850;51.984;5.088;2023-01-30T03:54:20;8.50;82.90
69628;DHT22;56850;51.984;5.088;2023-01-30T03:56:47;8.50;83.00
69628;DHT22;56850;51.984;5.088;2023-01-30T03:59:15;8.50;83.10
69628;DHT22;56850;51.984;5.088;2023-01-30T04:01:49;8.50;83.10
69628;DHT22;56850;51.984;5.088;2023-01-30T04:04:16;8.60;83.10
69628;DHT22;56850;51.984;5.088;2023-01-30T04:06:42;8.60;82.90
69628;DHT22;56850;51.984;5.088;2023-01-30T04:09:09;8.60;82.90
69628;DHT22;56850;51.984;5.088;2023-01-30T04:11:41;8.70;82.80
69628;DHT22;56850;51.984;5.088;2023-01-30T04:14:08;8.70;82.60
69628;DHT22;56850;51.984;5.088;2023-01-30T04:16:45;8.70;82.60
69628;DHT22;56850;51.984;5.088;2023-01-30T04:19:44;8.70;82.40
69628;DHT22;56850;51.984;5.088;2023-01-30T04:22:12;8.70;82.40
69628;DHT22;56850;51.984;5.088;2023-01-30T04:24:39;8.80;82.40
69628;DHT22;56850;51.984;5.088;2023-01-30T04:27:06;8.80;82.20
69628;DHT22;56850;51.984;5.088;2023-01-30T04:29:39;8.80;82.10
69628;DHT22;56850;51.984;5.088;2023-01-30T04:32:09;8.80;82.00
69628;DHT22;56850;51.984;5.088;2023-01-30T04:34:37;8.80;81.90
69628;DHT22;56850;51.984;5.088;2023-01-30T04:37:04;8.90;81.70
69628;DHT22;56850;51.984;5.088;2023-01-30T04:39:31;8.90;81.60
69628;DHT22;56850;51.984;5.088;2023-01-30T04:41:58;8.80;81.50
69628;DHT22;56850;51.984;5.088;2023-01-30T04:44:25;8.90;81.50
69628;DHT22;56850;51.984;5.088;2023-01-30T04:47:01;8.90;81.30
69628;DHT22;56850;51.984;5.088;2023-01-30T04:49:29;8.80;81.20
69628;DHT22;56850;51.984;5.088;2023-01-30T04:51:58;8.80;81.10
69628;DHT22;56850;51.984;5.088;2023-01-30T04:54:25;8.80;81.10
69628;DHT22;56850;51.984;5.088;2023-01-30T04:56:52;8.80;81.10
69628;DHT22;56850;51.984;5.088;2023-01-30T04:59:19;8.80;81.00
69628;DHT22;56850;51.984;5.088;2023-01-30T05:01:47;8.80;80.90
69628;DHT22;56850;51.984;5.088;2023-01-30T05:04:14;8.80;80.80
69628;DHT22;56850;51.984;5.088;2023-01-30T05:06:41;8.80;80.50
69628;DHT22;56850;51.984;5.088;2023-01-30T05:09:08;8.80;80.50
69628;DHT22;56850;51.984;5.088;2023-01-30T05:11:36;8.80;80.00
69628;DHT22;56850;51.984;5.088;2023-01-30T05:14:03;8.80;79.80
69628;DHT22;56850;51.984;5.088;2023-01-30T05:16:30;8.80;79.50
69628;DHT22;56850;51.984;5.088;2023-01-30T05:18:57;8.80;79.40
69628;DHT22;56850;51.984;5.088;2023-01-30T05:21:25;8.80;78.70
69628;DHT22;56850;51.984;5.088;2023-01-30T05:23:55;8.80;78.20
69628;DHT22;56850;51.984;5.088;2023-01-30T05:26:22;8.80;77.90
69628;DHT22;56850;51.984;5.088;2023-01-30T05:28:51;8.80;77.60
69628;DHT22;56850;51.984;5.088;2023-01-30T05:31:18;8.80;76.70
69628;DHT22;56850;51.984;5.088;2023-01-30T05:33:47;8.80;76.70
69628;DHT22;56850;51.984;5.088;2023-01-30T05:36:17;8.80;76.20
69628;DHT22;56850;51.984;5.088;2023-01-30T05:38:45;8.70;76.30
69628;DHT22;56850;51.984;5.088;2023-01-30T05:41:13;8.70;76.10
69628;DHT22;56850;51.984;5.088;2023-01-30T05:43:41;8.70;76.10
69628;DHT22;56850;51.984;5.088;2023-01-30T05:46:10;8.70;75.90
69628;DHT22;56850;51.984;5.088;2023-01-30T05:48:38;8.70;75.90
69628;DHT22;56850;51.984;5.088;2023-01-30T05:51:05;8.70;75.90
69628;DHT22;56850;51.984;5.088;2023-01-30T05:53:32;8.70;75.70
69628;DHT22;56850;51.984;5.088;2023-01-30T05:56:04;8.60;75.60
69628;DHT22;56850;51.984;5.088;2023-01-30T05:58:32;8.60;75.60
69628;DHT22;56850;51.984;5.088;2023-01-30T06:01:05;8.60;75.60
69628;DHT22;56850;51.984;5.088;2023-01-30T06:03:32;8.60;75.70
69628;DHT22;56850;51.984;5.088;2023-01-30T06:06:01;8.50;75.50
69628;DHT22;56850;51.984;5.088;2023-01-30T06:08:28;8.50;75.40
69628;DHT22;56850;51.984;5.088;2023-01-30T06:11:02;8.50;75.30
69628;DHT22;56850;51.984;5.088;2023-01-30T06:13:31;8.40;75.20
69628;DHT22;56850;51.984;5.088;2023-01-30T06:15:58;8.40;75.10
69628;DHT22;56850;51.984;5.088;2023-01-30T06:18:24;8.40;75.20
69628;DHT22;56850;51.984;5.088;2023-01-30T06:20:52;8.40;75.10
69628;DHT22;56850;51.984;5.088;2023-01-30T06:23:20;8.40;75.00
69628;DHT22;56850;51.984;5.088;2023-01-30T06:25:49;8.30;74.90
69628;DHT22;56850;51.984;5.088;2023-01-30T06:28:18;8.30;74.90
69628;DHT22;56850;51.984;5.088;2023-01-30T06:30:48;8.30;74.90
69628;DHT22;56850;51.984;5.088;2023-01-30T06:33:15;8.30;74.90
69628;DHT22;56850;51.984;5.088;2023-01-30T06:35:43;8.20;74.80
69628;DHT22;56850;51.984;5.088;2023-01-30T06:38:10;8.20;74.80
69628;DHT22;56850;51.984;5.088;2023-01-30T06:40:47;8.20;74.70
69628;DHT22;56850;51.984;5.088;2023-01-30T06:43:15;8.20;74.60
69628;DHT22;56850;51.984;5.088;2023-01-30T06:45:42;8.10;74.40
69628;DHT22;56850;51.984;5.088;2023-01-30T06:48:09;8.10;74.40
69628;DHT22;56850;51.984;5.088;2023-01-30T06:50:36;8.10;74.30
69628;DHT22;56850;51.984;5.088;2023-01-30T06:53:04;8.00;74.10
69628;DHT22;56850;51.984;5.088;2023-01-30T06:55:33;8.00;74.30
69628;DHT22;56850;51.984;5.088;2023-01-30T06:58:06;8.00;74.00
69628;DHT22;56850;51.984;5.088;2023-01-30T07:00:34;8.00;73.90
69628;DHT22;56850;51.984;5.088;2023-01-30T07:03:02;8.00;73.50
69628;DHT22;56850;51.984;5.088;2023-01-30T07:05:28;8.00;73.20
69628;DHT22;56850;51.984;5.088;2023-01-30T07:07:56;7.90;72.90
69628;DHT22;56850;51.984;5.088;2023-01-30T07:10:23;7.90;72.60
69628;DHT22;56850;51.984;5.088;2023-01-30T07:12:52;7.90;72.60
69628;DHT22;56850;51.984;5.088;2023-01-30T07:15:19;7.90;72.40
69628;DHT22;56850;51.984;5.088;2023-01-30T07:17:46;7.90;72.10
69628;DHT22;56850;51.984;5.088;2023-01-30T07:20:13;7.90;72.00
69628;DHT22;56850;51.984;5.088;2023-01-30T07:22:40;7.80;71.70
69628;DHT22;56850;51.984;5.088;2023-01-30T07:25:08;7.80;71.00
69628;DHT22;56850;51.984;5.088;2023-01-30T07:27:35;7.70;70.60
69628;DHT22;56850;51.984;5.088;2023-01-30T07:30:01;7.70;70.70
69628;DHT22;56850;51.984;5.088;2023-01-30T07:32:28;7.70;70.10
69628;DHT22;56850;51.984;5.088;2023-01-30T07:34:55;7.70;70.00
69628;DHT22;56850;51.984;5.088;2023-01-30T07:37:22;7.70;70.10
69628;DHT22;56850;51.984;5.088;2023-01-30T07:39:49;7.70;69.80
69628;DHT22;56850;51.984;5.088;2023-01-30T07:42:16;7.70;69.80
69628;DHT22;56850;51.984;5.088;2023-01-30T07:44:44;7.60;69.70
69628;DHT22;56850;51.984;5.088;2023-01-30T07:47:11;7.70;69.70
69628;DHT22;56850;51.984;5.088;2023-01-30T07:49:38;7.70;69.60
69628;DHT22;56850;51.984;5.088;2023-01-30T07:52:05;7.60;69.70
69628;DHT22;56850;51.984;5.088;2023-01-30T07:54:32;7.60;69.60
69628;DHT22;56850;51.984;5.088;2023-01-30T07:56:58;7.60;69.60
69628;DHT22;56850;51.984;5.088;2023-01-30T07:59:25;7.70;69.60
69628;DHT22;56850;51.984;5.088;2023-01-30T08:01:53;7.60;69.60
69628;DHT22;56850;51.984;5.088;2023-01-30T08:04:20;7.60;69.70
69628;DHT22;56850;51.984;5.088;2023-01-30T08:06:48;7.70;69.60
69628;DHT22;56850;51.984;5.088;2023-01-30T08:09:15;7.70;69.60
69628;DHT22;56850;51.984;5.088;2023-01-30T08:11:41;7.70;69.70
69628;DHT22;56850;51.984;5.088;2023-01-30T08:14:09;7.70;69.60
69628;DHT22;56850;51.984;5.088;2023-01-30T08:16:36;7.70;69.60
69628;DHT22;56850;51.984;5.088;2023-01-30T08:19:05;7.80;69.50
69628;DHT22;56850;51.984;5.088;2023-01-30T08:21:32;7.80;69.60
69628;DHT22;56850;51.984;5.088;2023-01-30T08:23:59;7.80;69.40
69628;DHT22;56850;51.984;5.088;2023-01-30T08:26:27;7.80;69.30
69628;DHT22;56850;51.984;5.088;2023-01-30T08:28:54;7.80;69.40
69628;DHT22;56850;51.984;5.088;2023-01-30T08:31:22;7.80;69.20
69628;DHT22;56850;51.984;5.088;2023-01-30T08:33:48;7.90;69.30
69628;DHT22;56850;51.984;5.088;2023-01-30T08:36:15;7.90;69.20
69628;DHT22;56850;51.984;5.088;2023-01-30T08:38:42;8.00;69.20
69628;DHT22;56850;51.984;5.088;2023-01-30T08:41:09;8.00;69.10
69628;DHT22;56850;51.984;5.088;2023-01-30T08:43:36;8.10;68.90
69628;DHT22;56850;51.984;5.088;2023-01-30T08:46:03;8.10;68.70
69628;DHT22;56850;51.984;5.088;2023-01-30T08:48:30;8.10;68.50
69628;DHT22;56850;51.984;5.088;2023-01-30T08:51:14;8.20;68.50
69628;DHT22;56850;51.984;5.088;2023-01-30T08:53:41;8.20;68.50
69628;DHT22;56850;51.984;5.088;2023-01-30T08:56:08;8.20;68.00
69628;DHT22;56850;51.984;5.088;2023-01-30T08:58:34;8.30;67.90
69628;DHT22;56850;51.984;5.088;2023-01-30T09:01:06;8.30;67.80
69628;DHT22;56850;51.984;5.088;2023-01-30T09:03:33;8.30;68.00
69628;DHT22;56850;51.984;5.088;2023-01-30T09:06:00;8.40;67.70
69628;DHT22;56850;51.984;5.088;2023-01-30T09:08:27;8.40;67.40
69628;DHT22;56850;51.984;5.088;2023-01-30T09:11:01;8.50;67.40
69628;DHT22;56850;51.984;5.088;2023-01-30T09:13:29;8.50;67.30
69628;DHT22;56850;51.984;5.088;2023-01-30T09:15:57;8.50;67.30
69628;DHT22;56850;51.984;5.088;2023-01-30T09:18:24;8.50;67.30
69628;DHT22;56850;51.984;5.088;2023-01-30T09:21:01;8.40;67.20
69628;DHT22;56850;51.984;5.088;2023-01-30T09:23:28;8.50;67.30
69628;DHT22;56850;51.984;5.088;2023-01-30T09:25:55;8.40;67.10
69628;DHT22;56850;51.984;5.088;2023-01-30T09:28:22;8.40;67.50
69628;DHT22;56850;51.984;5.088;2023-01-30T09:30:49;8.50;67.40
69628;DHT22;56850;51.984;5.088;2023-01-30T09:33:16;8.50;67.40
69628;DHT22;56850;51.984;5.088;2023-01-30T09:35:46;8.50;67.00
69628;DHT22;56850;51.984;5.088;2023-01-30T09:38:14;8.50;67.10
69628;DHT22;56850;51.984;5.088;2023-01-30T09:46:38;8.50;66.90
69628;DHT22;56850;51.984;5.088;2023-01-30T09:49:39;8.50;67.30
69628;DHT22;56850;51.984;5.088;2023-01-30T09:54:46;8.50;67.40
69628;DHT22;56850;51.984;5.088;2023-01-30T09:57:19;8.50;67.30
69628;DHT22;56850;51.984;5.088;2023-01-30T10:00:04;8.60;67.60
69628;DHT22;56850;51.984;5.088;2023-01-30T10:02:46;8.60;67.50
69628;DHT22;56850;51.984;5.088;2023-01-30T10:05:15;8.60;67.50
69628;DHT22;56850;51.984;5.088;2023-01-30T10:07:58;8.60;67.30
69628;DHT22;56850;51.984;5.088;2023-01-30T10:16:29;8.60;67.20
69628;DHT22;56850;51.984;5.088;2023-01-30T10:27:21;8.70;67.30
69628;DHT22;56850;51.984;5.088;2023-01-30T10:29:53;8.70;67.40
69628;DHT22;56850;51.984;5.088;2023-01-30T10:32:34;8.80;67.30
69628;DHT22;56850;51.984;5.088;2023-01-30T10:35:15;8.80;67.20
69628;DHT22;56850;51.984;5.088;2023-01-30T10:37:54;8.80;67.10
69628;DHT22;56850;51.984;5.088;2023-01-30T10:40:25;8.90;67.10
69628;DHT22;56850;51.984;5.088;2023-01-30T10:45:52;9.00;66.60
69628;DHT22;56850;51.984;5.088;2023-01-30T10:54:09;9.00;66.40
69628;DHT22;56850;51.984;5.088;2023-01-30T10:56:46;9.00;66.40
69628;DHT22;56850;51.984;5.088;2023-01-30T11:04:59;9.00;66.40
69628;DHT22;56850;51.984;5.088;2023-01-30T11:07:32;9.00;66.20
69628;DHT22;56850;51.984;5.088;2023-01-30T11:09:59;9.00;66.40
69628;DHT22;56850;51.984;5.088;2023-01-30T11:12:26;9.00;66.50
69628;DHT22;56850;51.984;5.088;2023-01-30T11:14:57;9.00;66.60
69628;DHT22;56850;51.984;5.088;2023-01-30T11:17:36;9.00;66.50
69628;DHT22;56850;51.984;5.088;2023-01-30T11:20:16;9.00;66.60
69628;DHT22;56850;51.984;5.088;2023-01-30T11:22:59;9.20;66.80
69628;DHT22;56850;51.984;5.088;2023-01-30T11:25:26;9.30;66.30
69628;DHT22;56850;51.984;5.088;2023-01-30T11:27:59;9.30;66.00
69628;DHT22;56850;51.984;5.088;2023-01-30T11:30:35;9.30;66.10
69628;DHT22;56850;51.984;5.088;2023-01-30T11:33:20;9.40;66.00
69628;DHT22;56850;51.984;5.088;2023-01-30T11:35:55;9.40;65.40
69628;DHT22;56850;51.984;5.088;2023-01-30T11:38:34;9.40;65.60
69628;DHT22;56850;51.984;5.088;2023-01-30T11:41:12;9.50;65.00
69628;DHT22;56850;51.984;5.088;2023-01-30T11:43:43;9.70;65.00
69628;DHT22;56850;51.984;5.088;2023-01-30T11:46:13;9.90;64.60
69628;DHT22;56850;51.984;5.088;2023-01-30T11:48:54;10.00;64.60
69628;DHT22;56850;51.984;5.088;2023-01-30T11:51:44;10.20;63.90
69628;DHT22;56850;51.984;5.088;2023-01-30T11:54:20;10.30;63.30
69628;DHT22;56850;51.984;5.088;2023-01-30T11:56:53;10.40;62.90
69628;DHT22;56850;51.984;5.088;2023-01-30T11:59:29;10.50;62.50
69628;DHT22;56850;51.984;5.088;2023-01-30T12:02:07;10.50;61.20
69628;DHT22;56850;51.984;5.088;2023-01-30T12:04:43;10.40;61.20
69628;DHT22;56850;51.984;5.088;2023-01-30T12:09:47;10.30;61.40
69628;DHT22;56850;51.984;5.088;2023-01-30T12:14:56;10.50;61.40
69628;DHT22;56850;51.984;5.088;2023-01-30T12:17:34;10.50;60.80
69628;DHT22;56850;51.984;5.088;2023-01-30T12:29:05;10.50;60.40
69628;DHT22;56850;51.984;5.088;2023-01-30T12:31:53;10.40;60.20
69628;DHT22;56850;51.984;5.088;2023-01-30T12:34:25;10.40;60.80
69628;DHT22;56850;51.984;5.088;2023-01-30T12:39:45;10.40;61.10
69628;DHT22;56850;51.984;5.088;2023-01-30T12:45:18;10.10;61.60
69628;DHT22;56850;51.984;5.088;2023-01-30T12:50:34;10.20;61.80
69628;DHT22;56850;51.984;5.088;2023-01-30T12:59:13;10.60;61.40
69628;DHT22;56850;51.984;5.088;2023-01-30T13:10:14;10.70;60.50
69628;DHT22;56850;51.984;5.088;2023-01-30T13:18:44;10.70;60.70
69628;DHT22;56850;51.984;5.088;2023-01-30T13:21:28;10.60;61.20
69628;DHT22;56850;51.984;5.088;2023-01-30T13:24:17;10.50;61.40
69628;DHT22;56850;51.984;5.088;2023-01-30T13:26:45;10.40;61.20
69628;DHT22;56850;51.984;5.088;2023-01-30T13:29:35;10.30;61.50
69628;DHT22;56850;51.984;5.088;2023-01-30T13:32:32;10.20;61.90
69628;DHT22;56850;51.984;5.088;2023-01-30T13:35:05;10.20;62.20
69628;DHT22;56850;51.984;5.088;2023-01-30T13:37:36;10.10;62.30
69628;DHT22;56850;51.984;5.088;2023-01-30T13:40:17;10.10;62.20
69628;DHT22;56850;51.984;5.088;2023-01-30T13:42:58;10.00;62.30
69628;DHT22;56850;51.984;5.088;2023-01-30T13:45:32;10.00;62.60
69628;DHT22;56850;51.984;5.088;2023-01-30T13:51:42;9.90;63.10
69628;DHT22;56850;51.984;5.088;2023-01-30T13:57:27;9.80;63.40
69628;DHT22;56850;51.984;5.088;2023-01-30T14:00:18;9.80;63.80
69628;DHT22;56850;51.984;5.088;2023-01-30T14:14:24;9.60;63.90
69628;DHT22;56850;51.984;5.088;2023-01-30T14:16:51;9.60;64.10
69628;DHT22;56850;51.984;5.088;2023-01-30T14:19:34;9.70;64.60
69628;DHT22;56850;51.984;5.088;2023-01-30T14:32:58;10.20;62.90
69628;DHT22;56850;51.984;5.088;2023-01-30T14:35:28;10.30;62.60
69628;DHT22;56850;51.984;5.088;2023-01-30T14:38:10;10.30;62.60
69628;DHT22;56850;51.984;5.088;2023-01-30T14:40:43;10.20;62.90
69628;DHT22;56850;51.984;5.088;2023-01-30T14:45:54;10.10;63.20
69628;DHT22;56850;51.984;5.088;2023-01-30T14:49:02;10.10;63.20
69628;DHT22;56850;51.984;5.088;2023-01-30T14:51:43;9.90;63.40
69628;DHT22;56850;51.984;5.088;2023-01-30T14:57:14;9.80;63.90
69628;DHT22;56850;51.984;5.088;2023-01-30T14:59:54;9.80;63.90
69628;DHT22;56850;51.984;5.088;2023-01-30T15:03:01;9.70;63.90
69628;DHT22;56850;51.984;5.088;2023-01-30T15:05:47;9.70;64.10
69628;DHT22;56850;51.984;5.088;2023-01-30T15:08:20;9.70;64.30
69628;DHT22;56850;51.984;5.088;2023-01-30T15:14:03;9.70;64.40
69628;DHT22;56850;51.984;5.088;2023-01-30T15:17:03;9.60;64.40
69628;DHT22;56850;51.984;5.088;2023-01-30T15:28:38;9.50;64.80
69628;DHT22;56850;51.984;5.088;2023-01-30T15:31:20;9.50;65.00
69628;DHT22;56850;51.984;5.088;2023-01-30T15:33:50;9.70;64.80
69628;DHT22;56850;51.984;5.088;2023-01-30T15:41:43;10.00;64.00
69628;DHT22;56850;51.984;5.088;2023-01-30T15:52:17;9.80;63.40
69628;DHT22;56850;51.984;5.088;2023-01-30T15:54:50;9.70;63.50
69628;DHT22;56850;51.984;5.088;2023-01-30T15:57:33;9.60;63.70
69628;DHT22;56850;51.984;5.088;2023-01-30T16:00:03;9.60;64.00
69628;DHT22;56850;51.984;5.088;2023-01-30T16:02:38;9.60;64.10
69628;DHT22;56850;51.984;5.088;2023-01-30T16:05:19;9.50;64.30
69628;DHT22;56850;51.984;5.088;2023-01-30T16:07:48;9.50;64.40
69628;DHT22;56850;51.984;5.088;2023-01-30T16:10:21;9.50;64.60
69628;DHT22;56850;51.984;5.088;2023-01-30T16:12:50;9.50;64.70
69628;DHT22;56850;51.984;5.088;2023-01-30T16:15:28;9.40;64.80
69628;DHT22;56850;51.984;5.088;2023-01-30T16:18:00;9.40;64.80
69628;DHT22;56850;51.984;5.088;2023-01-30T16:20:39;9.40;65.00
69628;DHT22;56850;51.984;5.088;2023-01-30T16:23:39;9.40;65.00
69628;DHT22;56850;51.984;5.088;2023-01-30T16:26:12;9.30;65.10
69628;DHT22;56850;51.984;5.088;2023-01-30T16:28:40;9.30;65.30
69628;DHT22;56850;51.984;5.088;2023-01-30T16:31:08;9.30;65.80
69628;DHT22;56850;51.984;5.088;2023-01-30T16:33:36;9.20;66.10
69628;DHT22;56850;51.984;5.088;2023-01-30T16:38:54;9.10;66.20
69628;DHT22;56850;51.984;5.088;2023-01-30T16:41:33;9.00;65.90
69628;DHT22;56850;51.984;5.088;2023-01-30T16:44:28;8.90;65.80
69628;DHT22;56850;51.984;5.088;2023-01-30T16:47:06;8.90;66.00
69628;DHT22;56850;51.984;5.088;2023-01-30T16:49:46;8.80;66.40
69628;DHT22;56850;51.984;5.088;2023-01-30T16:55:06;8.70;67.20
69628;DHT22;56850;51.984;5.088;2023-01-30T16:57:43;8.60;67.20
69628;DHT22;56850;51.984;5.088;2023-01-30T17:03:03;8.60;67.20
69628;DHT22;56850;51.984;5.088;2023-01-30T17:05:38;8.50;67.20
69628;DHT22;56850;51.984;5.088;2023-01-30T17:10:59;8.50;67.50
69628;DHT22;56850;51.984;5.088;2023-01-30T17:18:52;8.40;67.90
69628;DHT22;56850;51.984;5.088;2023-01-30T17:21:21;8.40;67.90
69628;DHT22;56850;51.984;5.088;2023-01-30T17:24:02;8.40;67.90
69628;DHT22;56850;51.984;5.088;2023-01-30T17:26:33;8.50;68.00
69628;DHT22;56850;51.984;5.088;2023-01-30T17:29:00;8.50;68.00
69628;DHT22;56850;51.984;5.088;2023-01-30T17:31:27;8.40;68.10
69628;DHT22;56850;51.984;5.088;2023-01-30T17:33:54;8.40;68.20
69628;DHT22;56850;51.984;5.088;2023-01-30T17:36:25;8.30;68.50
69628;DHT22;56850;51.984;5.088;2023-01-30T17:38:53;8.40;68.70
69628;DHT22;56850;51.984;5.088;2023-01-30T17:41:28;8.40;68.70
69628;DHT22;56850;51.984;5.088;2023-01-30T17:43:57;8.40;68.60
69628;DHT22;56850;51.984;5.088;2023-01-30T17:46:39;8.50;68.40
69628;DHT22;56850;51.984;5.088;2023-01-30T17:49:22;8.50;68.40
69628;DHT22;56850;51.984;5.088;2023-01-30T17:51:51;8.50;68.50
69628;DHT22;56850;51.984;5.088;2023-01-30T17:54:18;8.50;68.30
69628;DHT22;56850;51.984;5.088;2023-01-30T17:56:51;8.50;68.30
69628;DHT22;56850;51.984;5.088;2023-01-30T17:59:20;8.50;68.30
69628;DHT22;56850;51.984;5.088;2023-01-30T18:01:49;8.50;68.30
69628;DHT22;56850;51.984;5.088;2023-01-30T18:04:17;8.50;68.30
69628;DHT22;56850;51.984;5.088;2023-01-30T18:06:51;8.50;68.40
69628;DHT22;56850;51.984;5.088;2023-01-30T18:09:21;8.50;68.40
69628;DHT22;56850;51.984;5.088;2023-01-30T18:11:51;8.40;68.40
69628;DHT22;56850;51.984;5.088;2023-01-30T18:14:18;8.40;68.40
69628;DHT22;56850;51.984;5.088;2023-01-30T18:16:46;8.40;68.50
69628;DHT22;56850;51.984;5.088;2023-01-30T18:19:15;8.40;68.50
69628;DHT22;56850;51.984;5.088;2023-01-30T18:21:49;8.30;68.40
69628;DHT22;56850;51.984;5.088;2023-01-30T18:24:17;8.30;68.40
69628;DHT22;56850;51.984;5.088;2023-01-30T18:26:45;8.20;68.50
69628;DHT22;56850;51.984;5.088;2023-01-30T18:29:12;8.30;68.40
69628;DHT22;56850;51.984;5.088;2023-01-30T18:31:39;8.20;68.40
69628;DHT22;56850;51.984;5.088;2023-01-30T18:34:11;8.20;68.40
69628;DHT22;56850;51.984;5.088;2023-01-30T18:36:39;8.20;68.30
69628;DHT22;56850;51.984;5.088;2023-01-30T18:39:07;8.10;68.30
69628;DHT22;56850;51.984;5.088;2023-01-30T18:41:35;8.10;68.40
69628;DHT22;56850;51.984;5.088;2023-01-30T18:44:03;8.10;68.40
69628;DHT22;56850;51.984;5.088;2023-01-30T18:46:31;8.00;68.50
69628;DHT22;56850;51.984;5.088;2023-01-30T18:48:59;8.00;68.60
69628;DHT22;56850;51.984;5.088;2023-01-30T18:51:28;8.00;68.80
69628;DHT22;56850;51.984;5.088;2023-01-30T18:53:55;8.00;69.00
69628;DHT22;56850;51.984;5.088;2023-01-30T18:56:30;7.90;69.20
69628;DHT22;56850;51.984;5.088;2023-01-30T18:59:00;7.90;69.20
69628;DHT22;56850;51.984;5.088;2023-01-30T19:01:35;7.90;69.30
69628;DHT22;56850;51.984;5.088;2023-01-30T19:04:06;8.00;69.30
69628;DHT22;56850;51.984;5.088;2023-01-30T19:06:35;8.00;69.20
69628;DHT22;56850;51.984;5.088;2023-01-30T19:09:03;8.00;69.10
69628;DHT22;56850;51.984;5.088;2023-01-30T19:11:31;8.00;69.10
69628;DHT22;56850;51.984;5.088;2023-01-30T19:14:17;8.00;69.10